sensor_id;sensor_type;location;lat;lon;timestamp;pressure;altitude;pressure_sealevel;temperature;humidity
4586;BME280;2305;50.118;8.952;2022-08-06T00:02:28;101180.47;;;19.14;100.00
4586;BME280;2305;50.118;8.952;2022-08-06T00:04:58;101185.97;;;19.12;100.00
4586;BME280;2305;50.118;8.952;2022-08-06T00:07:26;101186.81;;;19.13;100.00
4586;BME280;2305;50.118;8.952;2022-08-06T00:10:11;101189.34;;;19.14;100.00
4586;BME280;2305;50.118;8.952;2022-08-06T00:12:40;101192.31;;;19.11;100.00
4586;BME280;2305;50.118;8.952;2022-08-06T00:15:11;101188.97;;;19.09;100.00
4586;BME280;2305;50.118;8.952;2022-08-06T00:17:42;101189.13;;;19.08;100.00
4586;BME280;2305;50.118;8.952;2022-08-06T00:20:15;101192.94;;;19.05;100.00
4586;BME280;2305;50.118;8.952;2022-08-06T00:22:59;101196.94;;;19.01;100.00
4586;BME280;2305;50.118;8.952;2022-08-06T00:25:28;101207.94;;;18.98;100.00
4586;BME280;2305;50.118;8.952;2022-08-06T00:28:10;101214.41;;;18.96;100.00
4586;BME280;2305;50.118;8.952;2022-08-06T00:30:38;101212.56;;;18.88;100.00
4586;BME280;2305;50.118;8.952;2022-08-06T00:33:14;101219.38;;;18.83;100.00
4586;BME280;2305;50.118;8.952;2022-08-06T00:35:42;101226.16;;;18.77;100.00
4586;BME280;2305;50.118;8.952;2022-08-06T00:38:13;101226.47;;;18.75;100.00
4586;BME280;2305;50.118;8.952;2022-08-06T00:40:41;101237.16;;;18.75;100.00
4586;BME280;2305;50.118;8.952;2022-08-06T00:43:27;101238.28;;;18.72;100.00
4586;BME280;2305;50.118;8.952;2022-08-06T00:46:06;101246.63;;;18.69;100.00
4586;BME280;2305;50.118;8.952;2022-08-06T00:48:43;101251.44;;;18.66;100.00
4586;BME280;2305;50.118;8.952;2022-08-06T00:51:20;101259.06;;;18.61;100.00
4586;BME280;2305;50.118;8.952;2022-08-06T00:53:48;101257.53;;;18.58;100.00
4586;BME280;2305;50.118;8.952;2022-08-06T00:56:24;101269.66;;;18.53;100.00
4586;BME280;2305;50.118;8.952;2022-08-06T00:58:54;101271.94;;;18.48;100.00
4586;BME280;2305;50.118;8.952;2022-08-06T01:01:29;101264.25;;;18.45;100.00
4586;BME280;2305;50.118;8.952;2022-08-06T01:04:18;101273.69;;;18.39;100.00
4586;BME280;2305;50.118;8.952;2022-08-06T01:06:46;101274.84;;;18.37;100.00
4586;BME280;2305;50.118;8.952;2022-08-06T01:09:24;101268.13;;;18.33;100.00
4586;BME280;2305;50.118;8.952;2022-08-06T01:11:57;101270.13;;;18.31;100.00
4586;BME280;2305;50.118;8.952;2022-08-06T01:14:26;101268.03;;;18.25;100.00
4586;BME280;2305;50.118;8.952;2022-08-06T01:17:09;101262.28;;;18.20;100.00
4586;BME280;2305;50.118;8.952;2022-08-06T01:19:59;101266.94;;;18.18;100.00
4586;BME280;2305;50.118;8.952;2022-08-06T01:23:10;101271.19;;;18.11;100.00
4586;BME280;2305;50.118;8.952;2022-08-06T01:26:01;101269.97;;;18.05;100.00
4586;BME280;2305;50.118;8.952;2022-08-06T01:28:42;101272.94;;;18.02;100.00
4586;BME280;2305;50.118;8.952;2022-08-06T01:31:20;101262.41;;;18.01;100.00
4586;BME280;2305;50.118;8.952;2022-08-06T01:33:51;101267.19;;;17.97;100.00
4586;BME280;2305;50.118;8.952;2022-08-06T01:36:23;101264.69;;;17.96;100.00
4586;BME280;2305;50.118;8.952;2022-08-06T01:38:57;101279.97;;;17.94;100.00
4586;BME280;2305;50.118;8.952;2022-08-06T01:41:32;101280.28;;;17.91;100.00
4586;BME280;2305;50.118;8.952;2022-08-06T01:44:32;101279.63;;;17.89;100.00
4586;BME280;2305;50.118;8.952;2022-08-06T01:47:06;101274.00;;;17.82;100.00
4586;BME280;2305;50.118;8.952;2022-08-06T01:49:43;101276.13;;;17.79;100.00
4586;BME280;2305;50.118;8.952;2022-08-06T01:52:32;101282.47;;;17.78;100.00
4586;BME280;2305;50.118;8.952;2022-08-06T01:55:05;101286.44;;;17.74;100.00
4586;BME280;2305;50.118;8.952;2022-08-06T01:57:40;101281.69;;;17.68;100.00
4586;BME280;2305;50.118;8.952;2022-08-06T02:00:31;101286.16;;;17.67;100.00
4586;BME280;2305;50.118;8.952;2022-08-06T02:03:02;101289.69;;;17.68;100.00
4586;BME280;2305;50.118;8.952;2022-08-06T02:05:33;101281.94;;;17.65;100.00
4586;BME280;2305;50.118;8.952;2022-08-06T02:08:13;101285.06;;;17.60;100.00
4586;BME280;2305;50.118;8.952;2022-08-06T02:11:04;101292.50;;;17.57;100.00
4586;BME280;2305;50.118;8.952;2022-08-06T02:13:54;101297.03;;;17.56;100.00
4586;BME280;2305;50.118;8.952;2022-08-06T02:16:27;101297.16;;;17.55;100.00
4586;BME280;2305;50.118;8.952;2022-08-06T02:18:58;101298.16;;;17.54;100.00
4586;BME280;2305;50.118;8.952;2022-08-06T02:21:36;101290.72;;;17.48;100.00
4586;BME280;2305;50.118;8.952;2022-08-06T02:24:08;101293.28;;;17.40;100.00
4586;BME280;2305;50.118;8.952;2022-08-06T02:26:39;101301.53;;;17.37;100.00
4586;BME280;2305;50.118;8.952;2022-08-06T02:29:11;101307.00;;;17.35;100.00
4586;BME280;2305;50.118;8.952;2022-08-06T02:31:43;101305.34;;;17.34;100.00
4586;BME280;2305;50.118;8.952;2022-08-06T02:34:18;101309.94;;;17.32;100.00
4586;BME280;2305;50.118;8.952;2022-08-06T02:37:00;101303.06;;;17.30;100.00
4586;BME280;2305;50.118;8.952;2022-08-06T02:39:33;101301.13;;;17.32;100.00
4586;BME280;2305;50.118;8.952;2022-08-06T02:42:20;101301.69;;;17.35;100.00
4586;BME280;2305;50.118;8.952;2022-08-06T02:44:59;101309.41;;;17.38;100.00
4586;BME280;2305;50.118;8.952;2022-08-06T02:47:36;101305.91;;;17.38;100.00
4586;BME280;2305;50.118;8.952;2022-08-06T02:50:31;101310.50;;;17.36;100.00
4586;BME280;2305;50.118;8.952;2022-08-06T02:53:05;101313.16;;;17.36;100.00
4586;BME280;2305;50.118;8.952;2022-08-06T02:55:57;101313.47;;;17.33;100.00
4586;BME280;2305;50.118;8.952;2022-08-06T02:58:32;101303.94;;;17.30;100.00
4586;BME280;2305;50.118;8.952;2022-08-06T03:01:08;101307.03;;;17.26;100.00
4586;BME280;2305;50.118;8.952;2022-08-06T03:03:50;101306.59;;;17.21;100.00
4586;BME280;2305;50.118;8.952;2022-08-06T03:06:27;101319.38;;;17.17;100.00
4586;BME280;2305;50.118;8.952;2022-08-06T03:08:58;101320.66;;;17.13;100.00
4586;BME280;2305;50.118;8.952;2022-08-06T03:11:29;101325.25;;;17.11;100.00
4586;BME280;2305;50.118;8.952;2022-08-06T03:14:01;101334.25;;;17.10;100.00
4586;BME280;2305;50.118;8.952;2022-08-06T03:16:51;101335.53;;;17.06;100.00
4586;BME280;2305;50.118;8.952;2022-08-06T03:19:26;101342.78;;;17.04;100.00
4586;BME280;2305;50.118;8.952;2022-08-06T03:22:16;101341.69;;;16.97;100.00
4586;BME280;2305;50.118;8.952;2022-08-06T03:25:07;101339.44;;;16.93;100.00
4586;BME280;2305;50.118;8.952;2022-08-06T03:27:38;101348.53;;;16.90;100.00
4586;BME280;2305;50.118;8.952;2022-08-06T03:30:11;101353.47;;;16.85;100.00
4586;BME280;2305;50.118;8.952;2022-08-06T03:33:00;101355.69;;;16.80;100.00
4586;BME280;2305;50.118;8.952;2022-08-06T03:35:51;101353.59;;;16.74;100.00
4586;BME280;2305;50.118;8.952;2022-08-06T03:38:21;101353.88;;;16.71;100.00
4586;BME280;2305;50.118;8.952;2022-08-06T03:40:56;101367.31;;;16.70;100.00
4586;BME280;2305;50.118;8.952;2022-08-06T03:43:27;101361.56;;;16.65;100.00
4586;BME280;2305;50.118;8.952;2022-08-06T03:46:20;101365.22;;;16.64;100.00
4586;BME280;2305;50.118;8.952;2022-08-06T03:48:53;101364.38;;;16.63;100.00
4586;BME280;2305;50.118;8.952;2022-08-06T03:51:26;101369.41;;;16.66;100.00
4586;BME280;2305;50.118;8.952;2022-08-06T03:54:18;101378.50;;;16.64;100.00
4586;BME280;2305;50.118;8.952;2022-08-06T03:56:56;101377.13;;;16.60;100.00
4586;BME280;2305;50.118;8.952;2022-08-06T03:59:26;101376.97;;;16.61;100.00
4586;BME280;2305;50.118;8.952;2022-08-06T04:02:13;101384.66;;;16.55;100.00
4586;BME280;2305;50.118;8.952;2022-08-06T04:05:02;101383.13;;;16.52;100.00
4586;BME280;2305;50.118;8.952;2022-08-06T04:07:34;101375.44;;;16.49;100.00
4586;BME280;2305;50.118;8.952;2022-08-06T04:10:23;101378.09;;;16.49;100.00
4586;BME280;2305;50.118;8.952;2022-08-06T04:13:03;101385.34;;;16.47;100.00
4586;BME280;2305;50.118;8.952;2022-08-06T04:15:53;101383.94;;;16.43;100.00
4586;BME280;2305;50.118;8.952;2022-08-06T04:18:24;101392.75;;;16.44;100.00
4586;BME280;2305;50.118;8.952;2022-08-06T04:20:57;101391.94;;;16.43;100.00
4586;BME280;2305;50.118;8.952;2022-08-06T04:23:48;101390.25;;;16.42;100.00
4586;BME280;2305;50.118;8.952;2022-08-06T04:26:21;101402.00;;;16.40;100.00
4586;BME280;2305;50.118;8.952;2022-08-06T04:28:52;101403.00;;;16.39;100.00
4586;BME280;2305;50.118;8.952;2022-08-06T04:31:26;101396.91;;;16.37;100.00
4586;BME280;2305;50.118;8.952;2022-08-06T04:34:19;101410.63;;;16.32;100.00
4586;BME280;2305;50.118;8.952;2022-08-06T04:36:54;101407.13;;;16.32;100.00
4586;BME280;2305;50.118;8.952;2022-08-06T04:39:24;101404.72;;;16.29;100.00
4586;BME280;2305;50.118;8.952;2022-08-06T04:42:15;101411.56;;;16.22;100.00
4586;BME280;2305;50.118;8.952;2022-08-06T04:44:45;101409.06;;;16.20;100.00
4586;BME280;2305;50.118;8.952;2022-08-06T04:47:28;101416.75;;;16.23;100.00
4586;BME280;2305;50.118;8.952;2022-08-06T04:50:08;101420.25;;;16.24;100.00
4586;BME280;2305;50.118;8.952;2022-08-06T04:52:37;101416.06;;;16.21;100.00
4586;BME280;2305;50.118;8.952;2022-08-06T04:55:19;101419.81;;;16.19;100.00
4586;BME280;2305;50.118;8.952;2022-08-06T04:57:51;101416.47;;;16.17;100.00
4586;BME280;2305;50.118;8.952;2022-08-06T05:00:30;101427.09;;;16.17;100.00
4586;BME280;2305;50.118;8.952;2022-08-06T05:03:18;101428.50;;;16.21;100.00
4586;BME280;2305;50.118;8.952;2022-08-06T05:06:09;101429.75;;;16.26;100.00
4586;BME280;2305;50.118;8.952;2022-08-06T05:08:43;101430.75;;;16.25;100.00
4586;BME280;2305;50.118;8.952;2022-08-06T05:11:23;101428.94;;;16.26;100.00
4586;BME280;2305;50.118;8.952;2022-08-06T05:13:54;101434.38;;;16.24;100.00
4586;BME280;2305;50.118;8.952;2022-08-06T05:16:25;101432.19;;;16.29;100.00
4586;BME280;2305;50.118;8.952;2022-08-06T05:18:57;101438.78;;;16.35;100.00
4586;BME280;2305;50.118;8.952;2022-08-06T05:21:47;101438.56;;;16.38;100.00
4586;BME280;2305;50.118;8.952;2022-08-06T05:24:37;101439.25;;;16.40;100.00
4586;BME280;2305;50.118;8.952;2022-08-06T05:27:27;101438.16;;;16.42;100.00
4586;BME280;2305;50.118;8.952;2022-08-06T05:30:15;101443.88;;;16.47;100.00
4586;BME280;2305;50.118;8.952;2022-08-06T05:32:47;101456.06;;;16.50;100.00
4586;BME280;2305;50.118;8.952;2022-08-06T05:35:19;101452.31;;;16.52;100.00
4586;BME280;2305;50.118;8.952;2022-08-06T05:37:48;101456.94;;;16.50;100.00
4586;BME280;2305;50.118;8.952;2022-08-06T05:40:30;101454.72;;;16.55;100.00
4586;BME280;2305;50.118;8.952;2022-08-06T05:43:23;101458.38;;;16.64;100.00
4586;BME280;2305;50.118;8.952;2022-08-06T05:46:12;101469.44;;;16.69;100.00
4586;BME280;2305;50.118;8.952;2022-08-06T05:48:53;101467.34;;;16.72;100.00
4586;BME280;2305;50.118;8.952;2022-08-06T05:51:33;101471.97;;;16.80;100.00
4586;BME280;2305;50.118;8.952;2022-08-06T05:54:20;101463.63;;;16.84;100.00
4586;BME280;2305;50.118;8.952;2022-08-06T05:56:52;101469.09;;;16.92;100.00
4586;BME280;2305;50.118;8.952;2022-08-06T05:59:34;101474.41;;;16.92;100.00
4586;BME280;2305;50.118;8.952;2022-08-06T06:02:24;101469.09;;;16.92;100.00
4586;BME280;2305;50.118;8.952;2022-08-06T06:04:53;101480.31;;;16.96;100.00
4586;BME280;2305;50.118;8.952;2022-08-06T06:07:42;101476.38;;;17.00;100.00
4586;BME280;2305;50.118;8.952;2022-08-06T06:10:30;101473.03;;;17.07;100.00
4586;BME280;2305;50.118;8.952;2022-08-06T06:13:01;101476.69;;;17.16;100.00
4586;BME280;2305;50.118;8.952;2022-08-06T06:16:01;101477.81;;;17.13;100.00
4586;BME280;2305;50.118;8.952;2022-08-06T06:18:45;101478.63;;;17.14;100.00
4586;BME280;2305;50.118;8.952;2022-08-06T06:21:34;101484.81;;;17.14;100.00
4586;BME280;2305;50.118;8.952;2022-08-06T06:24:11;101491.97;;;17.14;100.00
4586;BME280;2305;50.118;8.952;2022-08-06T06:26:50;101491.41;;;17.20;100.00
4586;BME280;2305;50.118;8.952;2022-08-06T06:29:33;101490.16;;;17.24;100.00
4586;BME280;2305;50.118;8.952;2022-08-06T06:32:37;101492.25;;;17.30;100.00
4586;BME280;2305;50.118;8.952;2022-08-06T06:35:18;101493.53;;;17.35;100.00
4586;BME280;2305;50.118;8.952;2022-08-06T06:37:56;101498.47;;;17.40;100.00
4586;BME280;2305;50.118;8.952;2022-08-06T06:40:39;101496.25;;;17.45;100.00
4586;BME280;2305;50.118;8.952;2022-08-06T06:43:35;101491.03;;;17.53;100.00
4586;BME280;2305;50.118;8.952;2022-08-06T06:46:18;101493.97;;;17.59;100.00
4586;BME280;2305;50.118;8.952;2022-08-06T06:49:13;101506.06;;;17.63;100.00
4586;BME280;2305;50.118;8.952;2022-08-06T06:52:07;101506.44;;;17.68;100.00
4586;BME280;2305;50.118;8.952;2022-08-06T06:54:40;101507.72;;;17.74;100.00
4586;BME280;2305;50.118;8.952;2022-08-06T06:57:17;101507.16;;;17.80;100.00
4586;BME280;2305;50.118;8.952;2022-08-06T06:59:51;101503.06;;;17.85;100.00
4586;BME280;2305;50.118;8.952;2022-08-06T07:02:41;101508.09;;;17.98;100.00
4586;BME280;2305;50.118;8.952;2022-08-06T07:05:14;101516.22;;;18.06;100.00
4586;BME280;2305;50.118;8.952;2022-08-06T07:08:04;101501.06;;;18.06;100.00
4586;BME280;2305;50.118;8.952;2022-08-06T07:10:33;101506.22;;;18.17;100.00
4586;BME280;2305;50.118;8.952;2022-08-06T07:13:02;101507.75;;;18.20;100.00
4586;BME280;2305;50.118;8.952;2022-08-06T07:15:42;101512.53;;;18.26;100.00
4586;BME280;2305;50.118;8.952;2022-08-06T07:18:20;101514.22;;;18.36;100.00
4586;BME280;2305;50.118;8.952;2022-08-06T07:21:01;101505.03;;;18.48;100.00
4586;BME280;2305;50.118;8.952;2022-08-06T07:23:31;101499.63;;;18.58;100.00
4586;BME280;2305;50.118;8.952;2022-08-06T07:26:21;101506.78;;;18.67;100.00
4586;BME280;2305;50.118;8.952;2022-08-06T07:28:51;101504.34;;;18.73;100.00
4586;BME280;2305;50.118;8.952;2022-08-06T07:31:32;101512.44;;;18.81;100.00
4586;BME280;2305;50.118;8.952;2022-08-06T07:34:02;101505.25;;;18.91;100.00
4586;BME280;2305;50.118;8.952;2022-08-06T07:36:40;101503.94;;;18.95;100.00
4586;BME280;2305;50.118;8.952;2022-08-06T07:39:27;101505.28;;;19.08;100.00
4586;BME280;2305;50.118;8.952;2022-08-06T07:42:02;101501.00;;;19.15;100.00
4586;BME280;2305;50.118;8.952;2022-08-06T07:44:40;101512.81;;;19.22;100.00
4586;BME280;2305;50.118;8.952;2022-08-06T07:47:25;101503.47;;;19.26;100.00
4586;BME280;2305;50.118;8.952;2022-08-06T07:50:13;101502.72;;;19.34;100.00
4586;BME280;2305;50.118;8.952;2022-08-06T07:52:44;101506.47;;;19.41;100.00
4586;BME280;2305;50.118;8.952;2022-08-06T07:55:13;101502.03;;;19.49;100.00
4586;BME280;2305;50.118;8.952;2022-08-06T07:57:44;101500.94;;;19.60;100.00
4586;BME280;2305;50.118;8.952;2022-08-06T08:00:25;101503.53;;;19.69;100.00
4586;BME280;2305;50.118;8.952;2022-08-06T08:02:58;101503.59;;;19.77;100.00
4586;BME280;2305;50.118;8.952;2022-08-06T08:06:04;101508.88;;;19.87;100.00
4586;BME280;2305;50.118;8.952;2022-08-06T08:08:52;101504.09;;;19.98;100.00
4586;BME280;2305;50.118;8.952;2022-08-06T08:11:25;101501.50;;;20.06;100.00
4586;BME280;2305;50.118;8.952;2022-08-06T08:14:16;101509.81;;;20.21;100.00
4586;BME280;2305;50.118;8.952;2022-08-06T08:16:45;101500.63;;;20.23;100.00
4586;BME280;2305;50.118;8.952;2022-08-06T08:19:25;101512.38;;;20.30;100.00
4586;BME280;2305;50.118;8.952;2022-08-06T08:22:03;101508.38;;;20.34;100.00
4586;BME280;2305;50.118;8.952;2022-08-06T08:24:35;101508.75;;;20.39;100.00
4586;BME280;2305;50.118;8.952;2022-08-06T08:27:04;101508.28;;;20.44;100.00
4586;BME280;2305;50.118;8.952;2022-08-06T08:29:48;101507.13;;;20.46;100.00
4586;BME280;2305;50.118;8.952;2022-08-06T08:32:23;101505.97;;;20.49;100.00
4586;BME280;2305;50.118;8.952;2022-08-06T08:34:54;101505.31;;;20.55;100.00
4586;BME280;2305;50.118;8.952;2022-08-06T08:37:24;101510.84;;;20.53;100.00
4586;BME280;2305;50.118;8.952;2022-08-06T08:39:59;101507.53;;;20.59;100.00
4586;BME280;2305;50.118;8.952;2022-08-06T08:42:31;101504.38;;;20.72;100.00
4586;BME280;2305;50.118;8.952;2022-08-06T08:45:04;101507.31;;;20.86;100.00
4586;BME280;2305;50.118;8.952;2022-08-06T08:47:44;101509.41;;;21.00;100.00
4586;BME280;2305;50.118;8.952;2022-08-06T08:50:22;101497.03;;;21.15;100.00
4586;BME280;2305;50.118;8.952;2022-08-06T08:52:56;101501.25;;;21.26;100.00
4586;BME280;2305;50.118;8.952;2022-08-06T08:55:27;101497.72;;;21.25;100.00
4586;BME280;2305;50.118;8.952;2022-08-06T08:58:16;101493.34;;;21.24;100.00
4586;BME280;2305;50.118;8.952;2022-08-06T09:01:08;101494.88;;;21.19;100.00
4586;BME280;2305;50.118;8.952;2022-08-06T09:03:56;101488.66;;;21.34;98.42
4586;BME280;2305;50.118;8.952;2022-08-06T09:06:28;101481.13;;;21.38;99.13
4586;BME280;2305;50.118;8.952;2022-08-06T09:08:58;101478.97;;;21.57;98.33
4586;BME280;2305;50.118;8.952;2022-08-06T09:11:33;101483.50;;;21.81;98.69
4586;BME280;2305;50.118;8.952;2022-08-06T09:14:21;101495.75;;;21.83;98.31
4586;BME280;2305;50.118;8.952;2022-08-06T09:17:00;101490.09;;;21.78;98.69
4586;BME280;2305;50.118;8.952;2022-08-06T09:19:31;101493.94;;;21.84;95.63
4586;BME280;2305;50.118;8.952;2022-08-06T09:22:05;101488.38;;;21.93;91.12
4586;BME280;2305;50.118;8.952;2022-08-06T09:24:35;101486.53;;;22.10;89.53
4586;BME280;2305;50.118;8.952;2022-08-06T09:27:08;101485.81;;;22.24;87.96
4586;BME280;2305;50.118;8.952;2022-08-06T09:29:58;101480.41;;;22.32;86.11
4586;BME280;2305;50.118;8.952;2022-08-06T09:32:47;101473.69;;;22.44;88.90
4586;BME280;2305;50.118;8.952;2022-08-06T09:35:25;101482.53;;;22.60;87.93
4586;BME280;2305;50.118;8.952;2022-08-06T09:38:13;101478.78;;;22.77;81.91
4586;BME280;2305;50.118;8.952;2022-08-06T09:41:01;101478.25;;;22.82;82.36
4586;BME280;2305;50.118;8.952;2022-08-06T09:43:35;101474.00;;;22.87;80.22
4586;BME280;2305;50.118;8.952;2022-08-06T09:46:37;101484.53;;;22.97;79.35
4586;BME280;2305;50.118;8.952;2022-08-06T09:49:10;101487.50;;;23.10;73.62
4586;BME280;2305;50.118;8.952;2022-08-06T09:52:15;101487.00;;;23.06;74.75
4586;BME280;2305;50.118;8.952;2022-08-06T09:54:46;101477.19;;;22.91;72.68
4586;BME280;2305;50.118;8.952;2022-08-06T09:57:24;101486.91;;;22.92;75.87
4586;BME280;2305;50.118;8.952;2022-08-06T10:00:04;101482.63;;;23.05;78.17
4586;BME280;2305;50.118;8.952;2022-08-06T10:02:40;101481.25;;;23.17;79.73
4586;BME280;2305;50.118;8.952;2022-08-06T10:05:19;101472.28;;;23.25;77.28
4586;BME280;2305;50.118;8.952;2022-08-06T10:08:03;101467.69;;;23.33;74.04
4586;BME280;2305;50.118;8.952;2022-08-06T10:10:44;101477.38;;;23.42;76.37
4586;BME280;2305;50.118;8.952;2022-08-06T10:13:21;101476.00;;;23.46;72.01
4586;BME280;2305;50.118;8.952;2022-08-06T10:15:56;101479.09;;;23.58;67.82
4586;BME280;2305;50.118;8.952;2022-08-06T10:18:32;101480.59;;;23.60;67.34
4586;BME280;2305;50.118;8.952;2022-08-06T10:21:22;101474.31;;;23.68;69.99
4586;BME280;2305;50.118;8.952;2022-08-06T10:23:55;101478.59;;;23.77;67.18
4586;BME280;2305;50.118;8.952;2022-08-06T10:26:25;101481.38;;;23.91;67.75
4586;BME280;2305;50.118;8.952;2022-08-06T10:29:04;101474.88;;;24.00;68.11
4586;BME280;2305;50.118;8.952;2022-08-06T10:31:36;101485.66;;;24.00;67.70
4586;BME280;2305;50.118;8.952;2022-08-06T10:34:08;101490.97;;;24.08;66.68
4586;BME280;2305;50.118;8.952;2022-08-06T10:36:40;101479.28;;;24.16;64.42
4586;BME280;2305;50.118;8.952;2022-08-06T10:39:10;101469.84;;;23.97;63.74
4586;BME280;2305;50.118;8.952;2022-08-06T10:42:00;101472.81;;;23.88;64.13
4586;BME280;2305;50.118;8.952;2022-08-06T10:44:48;101468.09;;;23.90;67.82
4586;BME280;2305;50.118;8.952;2022-08-06T10:47:21;101467.25;;;24.04;66.67
4586;BME280;2305;50.118;8.952;2022-08-06T10:50:09;101464.47;;;24.12;66.98
4586;BME280;2305;50.118;8.952;2022-08-06T10:52:53;101465.59;;;24.17;66.68
4586;BME280;2305;50.118;8.952;2022-08-06T10:55:23;101457.59;;;24.38;65.11
4586;BME280;2305;50.118;8.952;2022-08-06T10:58:03;101450.16;;;24.54;66.17
4586;BME280;2305;50.118;8.952;2022-08-06T11:00:33;101463.69;;;24.69;66.29
4586;BME280;2305;50.118;8.952;2022-08-06T11:03:13;101455.25;;;24.78;64.26
4586;BME280;2305;50.118;8.952;2022-08-06T11:05:45;101462.91;;;24.75;61.37
4586;BME280;2305;50.118;8.952;2022-08-06T11:08:31;101458.81;;;24.79;60.86
4586;BME280;2305;50.118;8.952;2022-08-06T11:11:40;101451.16;;;24.82;59.73
4586;BME280;2305;50.118;8.952;2022-08-06T11:14:32;101448.53;;;24.89;62.79
4586;BME280;2305;50.118;8.952;2022-08-06T11:17:05;101435.50;;;24.92;59.64
4586;BME280;2305;50.118;8.952;2022-08-06T11:19:40;101454.16;;;24.73;59.81
4586;BME280;2305;50.118;8.952;2022-08-06T11:22:33;101448.59;;;24.45;59.42
4586;BME280;2305;50.118;8.952;2022-08-06T11:25:04;101442.81;;;24.48;62.73
4586;BME280;2305;50.118;8.952;2022-08-06T11:27:55;101445.44;;;24.56;60.72
4586;BME280;2305;50.118;8.952;2022-08-06T11:30:40;101439.13;;;24.64;62.00
4586;BME280;2305;50.118;8.952;2022-08-06T11:33:15;101432.22;;;24.76;60.77
4586;BME280;2305;50.118;8.952;2022-08-06T11:35:46;101427.63;;;24.91;61.16
4586;BME280;2305;50.118;8.952;2022-08-06T11:38:56;101419.75;;;25.10;60.80
4586;BME280;2305;50.118;8.952;2022-08-06T11:41:47;101420.53;;;25.25;55.16
4586;BME280;2305;50.118;8.952;2022-08-06T11:44:28;101417.38;;;25.22;55.50
4586;BME280;2305;50.118;8.952;2022-08-06T11:47:11;101420.16;;;25.28;55.30
4586;BME280;2305;50.118;8.952;2022-08-06T11:49:42;101427.88;;;25.31;55.63
4586;BME280;2305;50.118;8.952;2022-08-06T11:52:39;101412.75;;;25.37;56.81
4586;BME280;2305;50.118;8.952;2022-08-06T11:55:10;101416.53;;;25.42;58.02
4586;BME280;2305;50.118;8.952;2022-08-06T12:00:55;101419.03;;;25.65;51.84
4586;BME280;2305;50.118;8.952;2022-08-06T12:03:37;101407.19;;;25.66;50.69
4586;BME280;2305;50.118;8.952;2022-08-06T12:06:19;101399.19;;;25.79;54.02
4586;BME280;2305;50.118;8.952;2022-08-06T12:09:10;101401.25;;;26.04;54.28
4586;BME280;2305;50.118;8.952;2022-08-06T12:11:48;101402.41;;;26.23;52.64
4586;BME280;2305;50.118;8.952;2022-08-06T12:14:39;101398.91;;;26.29;50.84
4586;BME280;2305;50.118;8.952;2022-08-06T12:17:17;101400.38;;;26.31;50.40
4586;BME280;2305;50.118;8.952;2022-08-06T12:19:48;101400.53;;;26.23;48.68
4586;BME280;2305;50.118;8.952;2022-08-06T12:22:28;101403.03;;;26.25;51.24
4586;BME280;2305;50.118;8.952;2022-08-06T12:25:01;101395.22;;;26.43;48.30
4586;BME280;2305;50.118;8.952;2022-08-06T12:27:38;101391.72;;;26.49;48.30
4586;BME280;2305;50.118;8.952;2022-08-06T12:30:17;101381.19;;;26.67;49.33
4586;BME280;2305;50.118;8.952;2022-08-06T12:33:04;101384.59;;;26.88;48.53
4586;BME280;2305;50.118;8.952;2022-08-06T12:35:50;101370.47;;;27.06;48.39
4586;BME280;2305;50.118;8.952;2022-08-06T12:38:20;101380.47;;;27.12;48.18
4586;BME280;2305;50.118;8.952;2022-08-06T12:40:56;101384.22;;;27.11;47.24
4586;BME280;2305;50.118;8.952;2022-08-06T12:43:28;101384.25;;;27.24;45.76
4586;BME280;2305;50.118;8.952;2022-08-06T12:46:13;101372.19;;;27.52;44.99
4586;BME280;2305;50.118;8.952;2022-08-06T12:48:48;101377.38;;;27.73;44.30
4586;BME280;2305;50.118;8.952;2022-08-06T12:51:17;101373.44;;;27.76;43.05
4586;BME280;2305;50.118;8.952;2022-08-06T12:53:56;101368.19;;;27.94;42.67
4586;BME280;2305;50.118;8.952;2022-08-06T12:56:29;101365.84;;;28.10;41.18
4586;BME280;2305;50.118;8.952;2022-08-06T12:59:09;101367.03;;;28.27;41.21
4586;BME280;2305;50.118;8.952;2022-08-06T13:01:50;101355.94;;;28.42;41.76
4586;BME280;2305;50.118;8.952;2022-08-06T13:04:35;101363.38;;;28.59;40.83
4586;BME280;2305;50.118;8.952;2022-08-06T13:07:05;101355.13;;;28.79;40.73
4586;BME280;2305;50.118;8.952;2022-08-06T13:09:38;101351.47;;;28.91;40.27
4586;BME280;2305;50.118;8.952;2022-08-06T13:12:29;101348.94;;;29.03;39.88
4586;BME280;2305;50.118;8.952;2022-08-06T13:15:17;101352.06;;;29.06;36.37
4586;BME280;2305;50.118;8.952;2022-08-06T13:18:04;101355.03;;;28.92;36.00
4586;BME280;2305;50.118;8.952;2022-08-06T13:20:53;101355.69;;;28.56;36.60
4586;BME280;2305;50.118;8.952;2022-08-06T13:23:31;101360.81;;;28.14;37.63
4586;BME280;2305;50.118;8.952;2022-08-06T13:26:13;101354.88;;;27.79;37.59
4586;BME280;2305;50.118;8.952;2022-08-06T13:29:09;101354.63;;;28.00;39.72
4586;BME280;2305;50.118;8.952;2022-08-06T13:32:05;101335.25;;;28.47;40.98
4586;BME280;2305;50.118;8.952;2022-08-06T13:34:52;101339.63;;;28.86;39.79
4586;BME280;2305;50.118;8.952;2022-08-06T13:37:42;101333.38;;;29.16;40.05
4586;BME280;2305;50.118;8.952;2022-08-06T13:40:40;101330.88;;;29.39;38.72
4586;BME280;2305;50.118;8.952;2022-08-06T13:43:33;101332.22;;;29.55;37.69
4586;BME280;2305;50.118;8.952;2022-08-06T13:46:11;101334.06;;;29.61;37.50
4586;BME280;2305;50.118;8.952;2022-08-06T13:48:46;101328.03;;;29.77;37.65
4586;BME280;2305;50.118;8.952;2022-08-06T13:51:17;101333.50;;;29.95;37.04
4586;BME280;2305;50.118;8.952;2022-08-06T13:53:54;101327.75;;;30.03;35.19
4586;BME280;2305;50.118;8.952;2022-08-06T13:56:24;101323.88;;;29.74;34.90
4586;BME280;2305;50.118;8.952;2022-08-06T13:58:55;101314.13;;;29.85;33.28
4586;BME280;2305;50.118;8.952;2022-08-06T14:01:24;101318.81;;;29.78;33.74
4586;BME280;2305;50.118;8.952;2022-08-06T14:04:11;101312.94;;;29.81;34.52
4586;BME280;2305;50.118;8.952;2022-08-06T14:06:40;101310.59;;;30.02;35.67
4586;BME280;2305;50.118;8.952;2022-08-06T14:09:12;101319.91;;;30.31;34.78
4586;BME280;2305;50.118;8.952;2022-08-06T14:11:49;101319.84;;;30.48;34.37
4586;BME280;2305;50.118;8.952;2022-08-06T14:14:20;101313.97;;;30.51;33.79